createdAt,value
2018-12-15T00:02:06.517Z,98209.08
2018-12-15T00:04:35.548Z,98216.02
2018-12-15T00:07:04.736Z,98210.40
2018-12-15T00:09:33.676Z,98206.92
2018-12-15T00:12:02.932Z,98203.91
2018-12-15T00:14:31.896Z,98209.53
2018-12-15T00:17:05.745Z,98210.37
2018-12-15T00:19:31.884Z,98209.50
2018-12-15T00:22:00.940Z,98216.86
2018-12-15T00:24:29.934Z,98221.62
2018-12-15T00:26:58.988Z,98227.69
2018-12-15T00:29:27.916Z,98231.59
2018-12-15T00:31:57.053Z,98236.34
2018-12-15T00:34:25.857Z,98239.81
2018-12-15T00:36:54.742Z,98237.65
2018-12-15T00:39:23.619Z,98231.58
2018-12-15T00:41:52.624Z,98236.31
2018-12-15T00:44:21.501Z,98219.05
2018-12-15T00:46:50.547Z,98224.66
2018-12-15T00:49:19.170Z,98221.20
2018-12-15T00:51:48.007Z,98231.15
2018-12-15T00:54:16.976Z,98227.69
2018-12-15T00:56:45.968Z,98219.06
2018-12-15T00:59:14.843Z,98206.94
2018-12-15T01:01:43.766Z,98226.41
2018-12-15T01:04:12.489Z,98222.06
2018-12-15T01:06:41.175Z,98220.36
2018-12-15T01:09:10.092Z,98217.74
2018-12-15T01:11:38.995Z,98220.77
2018-12-15T01:14:07.998Z,98219.05
2018-12-15T01:16:36.948Z,98226.81
2018-12-15T01:19:06.007Z,98229.43
2018-12-15T01:21:34.731Z,98221.66
2018-12-15T01:24:03.493Z,98215.59
2018-12-15T01:26:32.540Z,98228.13
2018-12-15T01:29:01.414Z,98225.09
2018-12-15T01:31:30.416Z,98207.80
2018-12-15T01:33:59.429Z,98216.44
2018-12-15T01:36:28.427Z,98207.31
2018-12-15T01:38:57.407Z,98213.38
2018-12-15T01:41:26.193Z,98204.31
2018-12-15T01:43:55.144Z,98200.02
2018-12-15T01:46:24.529Z,98202.58
2018-12-15T01:48:53.579Z,98198.69
2018-12-15T01:51:22.339Z,98190.48
2018-12-15T01:53:51.344Z,98206.05
2018-12-15T01:56:20.179Z,98191.77
2018-12-15T01:58:49.240Z,98197.41
2018-12-15T02:01:18.068Z,98196.95
2018-12-15T02:03:47.054Z,98187.02
2018-12-15T02:06:15.756Z,98183.16
2018-12-15T02:08:44.683Z,98187.48
2018-12-15T02:11:13.684Z,98178.39
2018-12-15T02:13:42.716Z,98174.94
2018-12-15T02:16:11.372Z,98178.37
2018-12-15T02:18:40.276Z,98174.91
2018-12-15T02:21:09.064Z,98173.62
2018-12-15T02:23:38.139Z,98173.58
2018-12-15T02:26:07.217Z,98177.92
2018-12-15T02:28:36.024Z,98183.10
2018-12-15T02:31:05.061Z,98183.55
2018-12-15T02:33:34.007Z,98184.42
2018-12-15T02:36:03.016Z,98190.49
2018-12-15T02:38:31.977Z,98181.00
2018-12-15T02:41:01.025Z,98177.11
2018-12-15T02:43:30.016Z,98174.11
2018-12-15T02:45:59.123Z,98164.16
2018-12-15T02:48:27.971Z,98164.16
2018-12-15T02:50:56.942Z,98168.91
2018-12-15T02:53:25.738Z,98169.78
2018-12-15T02:55:54.886Z,98162.86
2018-12-15T02:58:23.955Z,98169.78
2018-12-15T03:00:52.976Z,98166.74
2018-12-15T03:03:21.798Z,98160.70
2018-12-15T03:05:50.802Z,98161.58
2018-12-15T03:08:19.720Z,98160.25
2018-12-15T03:10:48.571Z,98167.59
2018-12-15T03:13:17.496Z,98175.39
2018-12-15T03:15:46.428Z,98171.95
2018-12-15T03:18:15.414Z,98177.11
2018-12-15T03:20:53.975Z,98172.80
2018-12-15T03:23:22.900Z,98181.45
2018-12-15T03:25:51.941Z,98181.00
2018-12-15T03:28:20.922Z,98183.19
2018-12-15T03:30:49.907Z,98180.14
2018-12-15T03:33:18.919Z,98177.55
2018-12-15T03:35:47.915Z,98171.47
2018-12-15T03:38:16.798Z,98178.84
2018-12-15T03:40:45.459Z,98171.91
2018-12-15T03:43:14.456Z,98171.89
2018-12-15T03:45:43.310Z,98185.30
2018-12-15T03:48:12.252Z,98181.02
2018-12-15T03:50:41.308Z,98177.55
2018-12-15T03:53:09.937Z,98182.30
2018-12-15T03:55:38.681Z,98171.09
2018-12-15T03:58:07.633Z,98177.12
2018-12-15T04:00:36.663Z,98176.27
2018-12-15T04:03:05.634Z,98174.53
2018-12-15T04:05:34.629Z,98172.80
2018-12-15T04:08:03.805Z,98169.78
2018-12-15T04:10:32.545Z,98176.70
2018-12-15T04:13:01.226Z,98176.69
2018-12-15T04:15:30.140Z,98172.36
2018-12-15T04:18:03.711Z,98184.05
2018-12-15T04:20:29.716Z,98183.61
2018-12-15T04:22:58.763Z,98180.15
2018-12-15T04:25:27.778Z,98177.10
2018-12-15T04:27:56.808Z,98192.25
2018-12-15T04:30:25.529Z,98175.81
2018-12-15T04:32:54.176Z,98171.48
2018-12-15T04:35:23.232Z,98178.41
2018-12-15T04:37:52.220Z,98182.30
2018-12-15T04:40:21.615Z,98183.61
2018-12-15T04:42:50.492Z,98179.71
2018-12-15T04:45:19.401Z,98177.56
2018-12-15T04:47:48.136Z,98181.86
2018-12-15T04:50:17.139Z,98180.14
2018-12-15T04:52:45.983Z,98181.84
2018-12-15T04:55:14.952Z,98181.38
2018-12-15T04:57:43.871Z,98174.05
2018-12-15T05:00:12.829Z,98177.53
2018-12-15T05:02:44.052Z,98177.55
2018-12-15T05:05:12.957Z,98174.95
2018-12-15T05:07:42.020Z,98163.29
2018-12-15T05:10:10.881Z,98166.34
2018-12-15T05:12:39.603Z,98168.48
2018-12-15T05:15:08.749Z,98165.04
2018-12-15T05:17:37.941Z,98164.18
2018-12-15T05:20:07.454Z,98168.93
2018-12-15T05:22:36.802Z,98165.90
2018-12-15T05:25:06.816Z,98166.75
2018-12-15T05:27:35.480Z,98171.50
2018-12-15T05:30:05.075Z,98172.36
2018-12-15T05:32:33.750Z,98172.36
2018-12-15T05:35:02.525Z,98170.20
2018-12-15T05:37:31.516Z,98163.73
2018-12-15T05:40:00.400Z,98165.88
2018-12-15T05:42:29.458Z,98171.52
2018-12-15T05:44:58.590Z,98171.93
2018-12-15T05:47:27.577Z,98173.23
2018-12-15T05:49:56.627Z,98167.20
2018-12-15T05:52:25.352Z,98168.89
2018-12-15T05:54:54.337Z,98169.77
2018-12-15T05:57:23.284Z,98155.05
2018-12-15T05:59:52.295Z,98161.99
2018-12-15T06:02:21.667Z,98162.42
2018-12-15T06:04:51.332Z,98166.75
2018-12-15T06:07:20.248Z,98173.23
2018-12-15T06:09:48.899Z,98170.22
2018-12-15T06:12:17.997Z,98168.92
2018-12-15T06:14:46.914Z,98162.88
2018-12-15T06:17:15.973Z,98163.72
2018-12-15T06:19:44.926Z,98163.73
2018-12-15T06:22:13.991Z,98165.45
2018-12-15T06:24:42.962Z,98178.42
2018-12-15T06:27:11.699Z,98164.14
2018-12-15T06:29:40.822Z,98159.80
2018-12-15T06:32:09.744Z,98160.66
2018-12-15T06:34:38.731Z,98172.33
2018-12-15T06:37:07.746Z,98169.30
2018-12-15T06:39:36.779Z,98183.99
2018-12-15T06:42:05.968Z,98179.69
2018-12-15T06:44:35.063Z,98186.14
2018-12-15T06:47:04.151Z,98192.20
2018-12-15T06:49:33.345Z,98181.83
2018-12-15T06:52:02.439Z,98186.59
2018-12-15T06:54:31.501Z,98194.81
2018-12-15T06:57:00.441Z,98187.47
2018-12-15T06:59:29.297Z,98179.68
2018-12-15T07:01:58.284Z,98186.56
2018-12-15T07:04:26.886Z,98186.56
2018-12-15T07:06:55.876Z,98190.45
2018-12-15T07:09:24.831Z,98193.05
2018-12-15T07:11:53.887Z,98183.50
2018-12-15T07:14:22.936Z,98194.77
2018-12-15T07:16:51.963Z,98190.86
2018-12-15T07:19:20.617Z,98185.25
2018-12-15T07:21:49.574Z,98183.88
2018-12-15T07:24:18.482Z,98181.73
2018-12-15T07:26:47.138Z,98183.86
2018-12-15T07:29:16.215Z,98179.92
2018-12-15T07:31:44.826Z,98179.48
2018-12-15T07:34:13.949Z,98175.58
2018-12-15T07:36:42.661Z,98179.48
2018-12-15T07:39:11.633Z,98178.59
2018-12-15T07:41:40.379Z,98178.17
2018-12-15T07:44:09.336Z,98175.12
2018-12-15T07:46:38.032Z,98173.31
2018-12-15T07:49:07.011Z,98170.26
2018-12-15T07:51:36.018Z,98180.21
2018-12-15T07:54:04.899Z,98186.30
2018-12-15T07:56:33.576Z,98185.51
2018-12-15T07:59:02.668Z,98186.37
2018-12-15T08:01:31.625Z,98196.33
2018-12-15T08:04:00.624Z,98192.86
2018-12-15T08:06:29.648Z,98188.53
2018-12-15T08:08:58.557Z,98185.06
2018-12-15T08:11:32.576Z,98189.41
2018-12-15T08:14:06.709Z,98194.56
2018-12-15T08:16:35.778Z,98188.03
2018-12-15T08:19:05.929Z,98194.48
2018-12-15T08:21:34.964Z,98188.84
2018-12-15T08:24:04.148Z,98203.14
2018-12-15T08:26:33.086Z,98209.13
2018-12-15T08:29:01.770Z,98206.19
2018-12-15T08:31:30.719Z,98215.31
2018-12-15T08:33:59.510Z,98223.47
2018-12-15T08:36:28.477Z,98224.80
2018-12-15T08:38:57.272Z,98214.44
2018-12-15T08:41:26.140Z,98216.58
2018-12-15T08:43:55.079Z,98212.23
2018-12-15T08:46:24.131Z,98211.79
2018-12-15T08:48:53.288Z,98212.64
2018-12-15T08:51:22.473Z,98204.02
2018-12-15T08:53:51.356Z,98201.33
2018-12-15T08:56:20.290Z,98198.27
2018-12-15T08:58:49.320Z,98193.52
2018-12-15T09:01:17.974Z,98195.67
2018-12-15T09:03:46.736Z,98187.78
2018-12-15T09:06:15.717Z,98186.95
2018-12-15T09:08:44.676Z,98182.98
2018-12-15T09:11:13.554Z,98180.34
2018-12-15T09:13:42.466Z,98181.17
2018-12-15T09:16:11.537Z,98171.61
2018-12-15T09:18:40.199Z,98172.28
2018-12-15T09:21:08.996Z,98168.96
2018-12-15T09:23:37.741Z,98172.88
2018-12-15T09:26:06.790Z,98158.94
2018-12-15T09:28:35.849Z,98156.72
2018-12-15T09:31:04.888Z,98158.36
2018-12-15T09:33:33.565Z,98151.42
2018-12-15T09:36:02.478Z,98147.88
2018-12-15T09:38:31.070Z,98141.31
2018-12-15T09:40:59.960Z,98150.83
2018-12-15T09:43:28.892Z,98148.41
2018-12-15T09:45:57.813Z,98147.11
2018-12-15T09:48:26.797Z,98147.04
2018-12-15T09:50:55.687Z,98145.33
2018-12-15T09:53:24.542Z,98150.16
2018-12-15T09:55:53.712Z,98141.09
2018-12-15T09:58:22.463Z,98133.34
2018-12-15T10:00:51.184Z,98140.22
2018-12-15T10:03:20.285Z,98130.23
2018-12-15T10:05:49.225Z,98121.50
2018-12-15T10:08:18.138Z,98116.63
2018-12-15T10:10:46.807Z,98123.55
2018-12-15T10:13:15.839Z,98123.86
2018-12-15T10:15:44.803Z,98120.52
2018-12-15T10:18:13.558Z,98121.74
2018-12-15T10:20:42.587Z,98115.74
2018-12-15T10:23:11.649Z,98115.70
2018-12-15T10:25:40.381Z,98123.41
2018-12-15T10:28:09.397Z,98119.50
2018-12-15T10:30:43.533Z,98109.16
2018-12-15T10:33:12.543Z,98100.05
2018-12-15T10:35:41.513Z,98099.14
2018-12-15T10:38:10.544Z,98099.08
2018-12-15T10:40:39.588Z,98093.89
2018-12-15T10:43:08.541Z,98088.71
2018-12-15T10:45:37.409Z,98087.34
2018-12-15T10:48:06.320Z,98091.53
2018-12-15T10:50:35.276Z,98081.06
2018-12-15T10:53:04.044Z,98082.77
2018-12-15T10:55:32.951Z,98075.30
2018-12-15T10:58:01.877Z,98078.61
2018-12-15T11:00:35.988Z,98085.90
2018-12-15T11:03:05.187Z,98076.19
2018-12-15T11:05:34.220Z,98076.93
2018-12-15T11:08:03.216Z,98076.50
2018-12-15T11:10:32.245Z,98071.19
2018-12-15T11:13:01.047Z,98065.13
2018-12-15T11:15:29.953Z,98049.52
2018-12-15T11:17:58.914Z,98058.53
2018-12-15T11:20:27.909Z,98049.77
2018-12-15T11:22:57.004Z,98038.69
2018-12-15T11:25:26.052Z,98034.30
2018-12-15T11:27:54.987Z,98049.73
2018-12-15T11:30:23.979Z,98046.57
2018-12-15T11:32:53.020Z,98048.19
2018-12-15T11:35:21.807Z,98047.78
2018-12-15T11:37:50.857Z,98051.80
2018-12-15T11:40:19.904Z,98052.28
2018-12-15T11:42:48.970Z,98046.23
2018-12-15T11:45:18.041Z,98054.91
2018-12-15T11:47:47.007Z,98044.26
2018-12-15T11:50:16.011Z,98049.10
2018-12-15T11:52:45.014Z,98053.47
2018-12-15T11:55:13.880Z,98048.64
2018-12-15T11:57:42.708Z,98045.70
2018-12-15T12:00:12.587Z,98056.24
2018-12-15T12:02:41.797Z,98052.38
2018-12-15T12:05:10.729Z,98039.80
2018-12-15T12:07:39.848Z,98041.23
2018-12-15T12:10:09.086Z,98038.25
2018-12-15T12:12:38.076Z,98026.59
2018-12-15T12:15:07.256Z,98020.55
2018-12-15T12:17:36.332Z,98016.16
2018-12-15T12:20:07.073Z,98014.77
2018-12-15T12:22:35.923Z,98017.16
2018-12-15T12:25:05.306Z,98017.12
2018-12-15T12:27:34.167Z,98027.88
2018-12-15T12:30:03.121Z,98014.41
2018-12-15T12:32:32.605Z,98014.34
2018-12-15T12:35:01.624Z,98012.56
2018-12-15T12:37:30.458Z,98021.00
2018-12-15T12:39:59.395Z,98019.70
2018-12-15T12:42:28.157Z,98020.52
2018-12-15T12:44:57.049Z,98034.80
2018-12-15T12:47:26.043Z,98036.01
2018-12-15T12:49:56.935Z,98026.50
2018-12-15T12:52:25.813Z,98021.38
2018-12-15T12:54:54.890Z,98017.58
2018-12-15T12:57:23.958Z,98006.70
2018-12-15T12:59:52.824Z,98008.88
2018-12-15T13:02:21.685Z,98008.88
2018-12-15T13:04:50.773Z,98000.62
2018-12-15T13:07:19.862Z,97999.32
2018-12-15T13:09:48.822Z,97994.11
2018-12-15T13:12:17.888Z,97992.86
2018-12-15T13:14:46.913Z,97979.89
2018-12-15T13:17:16.010Z,97986.75
2018-12-15T13:19:44.714Z,97982.92
2018-12-15T13:22:14.777Z,97982.90
2018-12-15T13:24:43.669Z,97979.84
2018-12-15T13:27:12.425Z,97979.05
2018-12-15T13:29:41.193Z,97980.78
2018-12-15T13:32:10.144Z,97991.05
2018-12-15T13:34:39.203Z,97995.92
2018-12-15T13:37:08.277Z,97983.74
2018-12-15T13:39:37.251Z,97978.53
2018-12-15T13:42:07.162Z,97978.63
2018-12-15T13:44:36.230Z,97979.11
2018-12-15T13:47:04.867Z,97993.92
2018-12-15T13:49:33.991Z,97983.98
2018-12-15T13:52:03.042Z,97979.32
2018-12-15T13:54:32.191Z,97991.13
2018-12-15T13:57:01.222Z,97982.72
2018-12-15T13:59:30.274Z,97980.19
2018-12-15T14:01:59.163Z,97986.77
2018-12-15T14:04:27.962Z,97995.44
2018-12-15T14:06:56.840Z,97993.19
2018-12-15T14:09:25.604Z,97999.78
2018-12-15T14:11:54.541Z,97995.56
2018-12-15T14:14:23.517Z,98005.48
2018-12-15T14:16:52.554Z,97996.92
2018-12-15T14:19:21.550Z,97994.83
2018-12-15T14:21:50.571Z,97987.94
2018-12-15T14:24:19.403Z,97989.28
2018-12-15T14:26:48.516Z,97988.80
2018-12-15T14:29:17.485Z,97980.08
2018-12-15T14:31:46.435Z,97987.81
2018-12-15T14:34:15.592Z,97992.59
2018-12-15T14:36:44.344Z,97992.14
2018-12-15T14:39:13.376Z,98000.30
2018-12-15T14:41:42.423Z,98003.47
2018-12-15T14:44:11.309Z,97998.28
2018-12-15T14:46:40.311Z,98001.69
2018-12-15T14:49:09.287Z,97994.77
2018-12-15T14:51:38.311Z,97998.34
2018-12-15T14:54:07.088Z,98001.04
2018-12-15T14:56:36.100Z,98009.70
2018-12-15T14:59:11.429Z,98001.04
2018-12-15T15:01:40.145Z,97998.97
2018-12-15T15:04:09.217Z,97991.66
2018-12-15T15:06:38.245Z,97985.16
2018-12-15T15:09:07.810Z,97983.80
2018-12-15T15:11:36.886Z,97987.72
2018-12-15T15:14:05.811Z,97986.09
2018-12-15T15:16:34.863Z,97988.63
2018-12-15T15:19:03.705Z,97989.70
2018-12-15T15:21:32.698Z,97995.72
2018-12-15T15:24:01.752Z,97978.83
2018-12-15T15:26:30.781Z,97987.38
2018-12-15T15:28:59.836Z,97991.70
2018-12-15T15:31:28.695Z,97985.65
2018-12-15T15:33:58.204Z,97991.23
2018-12-15T15:36:28.179Z,98001.27
2018-12-15T15:38:58.218Z,97998.25
2018-12-15T15:41:27.104Z,98007.78
2018-12-15T15:43:56.036Z,98004.80
2018-12-15T15:46:24.739Z,98000.50
2018-12-15T15:48:53.432Z,97995.38
2018-12-15T15:51:22.302Z,97993.62
2018-12-15T15:53:51.116Z,97986.68
2018-12-15T15:56:19.945Z,97994.68
2018-12-15T15:58:48.888Z,97989.10
2018-12-15T16:01:17.795Z,97990.55
2018-12-15T16:03:46.737Z,97982.37
2018-12-15T16:06:15.826Z,97981.05
2018-12-15T16:08:44.763Z,97972.91
2018-12-15T16:11:14.140Z,97968.79
2018-12-15T16:13:43.127Z,97962.70
2018-12-15T16:16:22.863Z,97962.16
2018-12-15T16:18:51.964Z,97956.86
2018-12-15T16:21:20.979Z,97965.09
2018-12-15T16:23:50.057Z,97968.22
2018-12-15T16:26:18.920Z,97968.64
2018-12-15T16:28:47.838Z,97975.70
2018-12-15T16:31:16.771Z,97975.27
2018-12-15T16:33:46.032Z,97981.78
2018-12-15T16:36:15.061Z,97981.36
2018-12-15T16:38:43.865Z,97977.00
2018-12-15T16:41:12.549Z,97985.20
2018-12-15T16:43:41.477Z,97979.08
2018-12-15T16:46:10.468Z,97964.39
2018-12-15T16:48:39.388Z,97971.58
2018-12-15T16:51:08.352Z,97980.98
2018-12-15T16:53:37.622Z,97978.12
2018-12-15T16:56:06.499Z,97980.58
2018-12-15T16:58:35.412Z,97975.39
2018-12-15T17:01:04.592Z,97985.81
2018-12-15T17:03:33.599Z,97978.55
2018-12-15T17:06:02.707Z,97982.49
2018-12-15T17:08:31.440Z,97977.33
2018-12-15T17:11:00.604Z,97992.11
2018-12-15T17:13:29.701Z,97979.30
2018-12-15T17:15:58.430Z,97982.74
2018-12-15T17:18:27.192Z,97983.22
2018-12-15T17:20:56.863Z,97987.09
2018-12-15T17:23:26.910Z,97984.48
2018-12-15T17:25:55.642Z,97990.45
2018-12-15T17:28:24.720Z,98008.97
2018-12-15T17:30:53.816Z,98013.63
2018-12-15T17:33:22.747Z,98010.61
2018-12-15T17:35:51.645Z,98003.77
2018-12-15T17:38:20.573Z,98004.63
2018-12-15T17:40:49.634Z,98002.66
2018-12-15T17:43:18.635Z,97997.46
2018-12-15T17:45:47.543Z,98007.02
2018-12-15T17:48:17.203Z,97999.66
2018-12-15T17:50:47.041Z,97975.88
2018-12-15T17:53:16.035Z,97978.33
2018-12-15T17:55:45.009Z,97971.84
2018-12-15T17:58:14.769Z,97971.46
2018-12-15T18:00:44.231Z,97959.20
2018-12-15T18:03:13.219Z,97965.16
2018-12-15T18:05:42.156Z,97977.41
2018-12-15T18:08:11.168Z,97988.73
2018-12-15T18:10:40.260Z,97977.09
2018-12-15T18:13:10.013Z,97978.84
2018-12-15T18:15:38.953Z,97979.25
2018-12-15T18:18:07.996Z,97975.09
2018-12-15T18:20:37.140Z,97972.03
2018-12-15T18:23:05.961Z,97972.91
2018-12-15T18:25:34.966Z,97974.28
2018-12-15T18:28:04.153Z,97964.89
2018-12-15T18:30:33.161Z,97957.52
2018-12-15T18:33:02.153Z,97968.44
2018-12-15T18:35:31.722Z,97968.44
2018-12-15T18:38:00.864Z,97978.33
2018-12-15T18:40:29.633Z,97978.80
2018-12-15T18:42:59.164Z,97981.41
2018-12-15T18:45:28.075Z,97983.42
2018-12-15T18:47:57.186Z,97970.91
2018-12-15T18:50:26.187Z,97966.89
2018-12-15T18:52:55.319Z,97981.27
2018-12-15T18:55:25.220Z,97972.19
2018-12-15T18:57:54.272Z,97973.45
2018-12-15T19:00:23.017Z,97968.17
2018-12-15T19:02:52.017Z,97953.48
2018-12-15T19:05:20.838Z,97949.65
2018-12-15T19:07:49.799Z,97953.23
2018-12-15T19:10:18.888Z,97962.84
2018-12-15T19:12:47.906Z,97947.55
2018-12-15T19:15:16.867Z,97959.43
2018-12-15T19:17:45.637Z,97962.02
2018-12-15T19:20:14.456Z,97954.64
2018-12-15T19:22:43.576Z,97966.28
2018-12-15T19:25:13.100Z,97957.95
2018-12-15T19:27:42.187Z,97967.94
2018-12-15T19:30:12.004Z,97974.23
2018-12-15T19:32:42.142Z,97970.46
2018-12-15T19:35:11.666Z,97966.89
2018-12-15T19:37:41.990Z,97969.92
2018-12-15T19:40:10.995Z,97975.50
2018-12-15T19:42:40.774Z,97967.60
2018-12-15T19:45:09.893Z,97958.61
2018-12-15T19:47:39.708Z,97960.44
2018-12-15T19:50:09.339Z,97963.77
2018-12-15T19:52:38.292Z,97951.98
2018-12-15T19:55:07.564Z,97960.62
2018-12-15T19:57:36.503Z,97962.52
2018-12-15T20:00:05.940Z,97962.14
2018-12-15T20:02:35.055Z,97966.48
2018-12-15T20:05:04.045Z,97954.87
2018-12-15T20:07:33.095Z,97942.82
2018-12-15T20:10:02.209Z,97949.82
2018-12-15T20:12:31.119Z,97955.98
2018-12-15T20:15:00.188Z,97968.05
2018-12-15T20:17:29.251Z,97970.53
2018-12-15T20:19:58.241Z,97954.14
2018-12-15T20:22:26.927Z,97955.42
2018-12-15T20:24:56.602Z,97938.91
2018-12-15T20:27:25.628Z,97950.69
2018-12-15T20:29:54.640Z,97946.81
2018-12-15T20:32:23.576Z,97950.31
2018-12-15T20:34:52.543Z,97932.97
2018-12-15T20:37:21.528Z,97934.63
2018-12-15T20:39:50.189Z,97932.06
2018-12-15T20:42:18.923Z,97931.01
2018-12-15T20:44:48.484Z,97936.33
2018-12-15T20:47:17.419Z,97938.13
2018-12-15T20:49:46.045Z,97925.98
2018-12-15T20:52:15.056Z,97923.42
2018-12-15T20:54:44.057Z,97922.72
2018-12-15T20:57:13.032Z,97916.56
2018-12-15T20:59:41.887Z,97913.59
2018-12-15T21:02:10.577Z,97919.73
2018-12-15T21:04:39.585Z,97914.17
2018-12-15T21:07:09.162Z,97918.84
2018-12-15T21:09:38.188Z,97918.98
2018-12-15T21:12:07.192Z,97926.23
2018-12-15T21:14:36.260Z,97931.90
2018-12-15T21:17:05.186Z,97931.44
2018-12-15T21:19:33.960Z,97922.58
2018-12-15T21:22:02.848Z,97914.20
2018-12-15T21:24:31.840Z,97911.17
2018-12-15T21:27:00.872Z,97910.94
2018-12-15T21:29:29.490Z,97914.25
2018-12-15T21:31:58.530Z,97920.33
2018-12-15T21:34:27.546Z,97914.22
2018-12-15T21:36:56.211Z,97901.70
2018-12-15T21:39:24.881Z,97908.77
2018-12-15T21:41:53.872Z,97904.85
2018-12-15T21:44:23.024Z,97895.78
2018-12-15T21:46:51.923Z,97897.08
2018-12-15T21:49:20.586Z,97911.77
2018-12-15T21:51:56.010Z,97901.42
2018-12-15T21:54:20.141Z,97903.14
2018-12-15T21:56:48.983Z,97900.94
2018-12-15T21:59:18.036Z,97902.68
2018-12-15T22:01:47.086Z,97901.42
2018-12-15T22:04:16.069Z,97906.24
2018-12-15T22:06:45.137Z,97909.71
2018-12-15T22:09:14.148Z,97912.33
2018-12-15T22:11:43.020Z,97903.27
2018-12-15T22:14:12.020Z,97900.66
2018-12-15T22:16:41.034Z,97898.89
2018-12-15T22:19:10.008Z,97897.62
2018-12-15T22:21:39.068Z,97895.83
2018-12-15T22:24:07.782Z,97898.73
2018-12-15T22:26:36.738Z,97897.52
2018-12-15T22:29:05.668Z,97889.20
2018-12-15T22:31:34.551Z,97888.27
2018-12-15T22:34:03.340Z,97884.82
2018-12-15T22:36:32.356Z,97883.52
2018-12-15T22:39:01.334Z,97886.12
2018-12-15T22:41:30.148Z,97875.30
2018-12-15T22:43:58.869Z,97876.13
2018-12-15T22:46:27.780Z,97876.17
2018-12-15T22:48:56.623Z,97873.48
2018-12-15T22:51:25.563Z,97877.36
2018-12-15T22:53:54.447Z,97867.87
2018-12-15T22:56:23.242Z,97879.63
2018-12-15T22:58:52.047Z,97882.31
2018-12-15T23:01:21.115Z,97876.70
2018-12-15T23:03:50.040Z,97873.66
2018-12-15T23:06:18.775Z,97879.30
2018-12-15T23:08:47.668Z,97874.97
2018-12-15T23:11:16.863Z,97869.39
2018-12-15T23:13:45.739Z,97871.62
2018-12-15T23:16:14.582Z,97867.80
2018-12-15T23:18:43.352Z,97865.70
2018-12-15T23:21:12.098Z,97862.72
2018-12-15T23:23:40.825Z,97857.52
2018-12-15T23:26:09.803Z,97855.74
2018-12-15T23:28:38.601Z,97859.16
2018-12-15T23:31:07.471Z,97871.68
2018-12-15T23:33:36.279Z,97862.16
2018-12-15T23:36:05.122Z,97860.03
2018-12-15T23:38:34.078Z,97850.13
2018-12-15T23:41:02.951Z,97860.49
2018-12-15T23:43:31.927Z,97848.78
2018-12-15T23:46:00.836Z,97846.19
2018-12-15T23:48:29.808Z,97836.53
2018-12-15T23:50:58.768Z,97834.36
2018-12-15T23:53:27.990Z,97830.47
2018-12-15T23:55:56.701Z,97830.33
2018-12-15T23:58:25.652Z,97839.45
